createdAt,value
2023-05-11T00:00:34.846Z,34.30
2023-05-11T00:03:06.386Z,30.70
2023-05-11T00:05:40.110Z,33.60
2023-05-11T00:08:11.141Z,36.83
2023-05-11T00:10:42.063Z,32.83
2023-05-11T00:13:12.949Z,31.87
2023-05-11T00:15:43.966Z,37.63
2023-05-11T00:18:15.032Z,36.63
2023-05-11T00:20:48.913Z,35.17
2023-05-11T00:23:19.826Z,37.80
2023-05-11T00:25:50.738Z,36.80
2023-05-11T00:28:22.978Z,41.27
2023-05-11T00:30:58.121Z,36.67
2023-05-11T00:33:29.208Z,36.87
2023-05-11T00:36:02.795Z,35.90
2023-05-11T00:38:34.835Z,38.03
2023-05-11T00:41:05.954Z,43.43
2023-05-11T00:43:36.936Z,39.27
2023-05-11T00:46:08.413Z,33.00
2023-05-11T00:48:39.336Z,36.20
2023-05-11T00:51:14.008Z,45.23
2023-05-11T00:53:45.055Z,45.03
2023-05-11T00:56:16.210Z,40.13
2023-05-11T00:58:47.264Z,36.77
2023-05-11T01:01:18.920Z,38.13
2023-05-11T01:03:50.893Z,34.07
2023-05-11T01:06:32.474Z,36.90
2023-05-11T01:09:06.952Z,40.87
2023-05-11T01:11:46.191Z,37.63
2023-05-11T01:14:23.217Z,37.43
2023-05-11T01:17:02.123Z,35.13
2023-05-11T01:19:44.233Z,32.50
2023-05-11T01:22:33.915Z,33.80
2023-05-11T01:25:16.565Z,36.10
2023-05-11T01:28:11.592Z,34.10
2023-05-11T01:30:51.458Z,37.73
2023-05-11T01:33:28.018Z,39.77
2023-05-11T01:36:06.602Z,35.37
2023-05-11T01:38:40.255Z,37.27
2023-05-11T01:41:16.158Z,37.37
2023-05-11T01:43:51.896Z,38.10
2023-05-11T01:46:28.352Z,40.57
2023-05-11T01:49:01.027Z,37.70
2023-05-11T01:51:37.150Z,37.03
2023-05-11T01:54:12.661Z,36.00
2023-05-11T01:56:45.649Z,34.27
2023-05-11T01:59:19.415Z,31.70
2023-05-11T02:01:53.055Z,36.87
2023-05-11T02:04:24.974Z,33.33
2023-05-11T02:06:57.308Z,35.20
2023-05-11T02:09:28.969Z,34.00
2023-05-11T02:12:01.691Z,35.20
2023-05-11T02:14:35.117Z,33.67
2023-05-11T02:17:09.927Z,32.07
2023-05-11T02:19:42.707Z,37.50
2023-05-11T02:22:15.562Z,37.10
2023-05-11T02:24:47.294Z,34.13
2023-05-11T02:27:18.261Z,38.40
2023-05-11T02:29:49.322Z,36.03
2023-05-11T02:32:25.764Z,35.90
2023-05-11T02:35:02.839Z,38.63
2023-05-11T02:37:36.518Z,34.23
2023-05-11T02:40:17.279Z,35.13
2023-05-11T02:42:54.626Z,39.90
2023-05-11T02:45:27.211Z,38.13
2023-05-11T02:48:02.010Z,39.60
2023-05-11T02:50:34.487Z,37.03
2023-05-11T02:53:11.079Z,39.40
2023-05-11T02:55:42.281Z,37.47
2023-05-11T02:58:13.675Z,37.50
2023-05-11T03:00:44.721Z,39.20
2023-05-11T03:03:18.429Z,43.77
2023-05-11T03:05:49.453Z,42.07
2023-05-11T03:08:20.622Z,39.77
2023-05-11T03:10:53.204Z,36.17
2023-05-11T03:13:25.482Z,37.33
2023-05-11T03:15:57.547Z,43.73
2023-05-11T03:18:32.759Z,47.50
2023-05-11T03:21:04.466Z,45.07
2023-05-11T03:23:37.275Z,41.37
2023-05-11T03:26:11.207Z,38.90
2023-05-11T03:28:44.773Z,41.40
2023-05-11T03:31:15.751Z,38.93
2023-05-11T03:33:49.312Z,41.80
2023-05-11T03:36:22.900Z,39.33
2023-05-11T03:38:56.642Z,40.90
2023-05-11T03:41:29.346Z,41.13
2023-05-11T03:44:03.155Z,42.83
2023-05-11T03:46:37.343Z,42.67
2023-05-11T03:49:13.809Z,45.60
2023-05-11T03:51:45.538Z,45.00
2023-05-11T03:54:16.784Z,40.77
2023-05-11T03:56:47.973Z,40.73
2023-05-11T03:59:19.514Z,42.17
2023-05-11T04:01:53.162Z,42.57
2023-05-11T04:04:31.359Z,41.97
2023-05-11T04:07:02.591Z,45.80
2023-05-11T04:09:33.534Z,44.00
2023-05-11T04:12:04.378Z,44.10
2023-05-11T04:14:35.359Z,44.07
2023-05-11T04:17:06.175Z,47.97
2023-05-11T04:19:42.658Z,46.73
2023-05-11T04:22:13.864Z,48.47
2023-05-11T04:24:44.694Z,42.10
2023-05-11T04:27:16.566Z,44.40
2023-05-11T04:29:48.831Z,44.07
2023-05-11T04:32:20.975Z,43.37
2023-05-11T04:34:54.544Z,41.30
2023-05-11T04:37:25.628Z,45.23
2023-05-11T04:39:57.672Z,41.87
2023-05-11T04:42:28.825Z,40.07
2023-05-11T04:45:02.450Z,39.47
2023-05-11T04:47:34.891Z,45.97
2023-05-11T04:50:14.003Z,44.50
2023-05-11T04:52:44.884Z,44.17
2023-05-11T04:55:16.369Z,44.57
2023-05-11T04:57:47.227Z,41.33
2023-05-11T05:00:19.031Z,41.83
2023-05-11T05:02:50.921Z,38.93
2023-05-11T05:05:26.823Z,40.97
2023-05-11T05:07:57.773Z,41.40
2023-05-11T05:10:28.753Z,38.57
2023-05-11T05:12:59.758Z,43.07
2023-05-11T05:15:30.927Z,38.50
2023-05-11T05:18:01.989Z,42.50
2023-05-11T05:20:35.519Z,41.83
2023-05-11T05:23:06.381Z,46.43
2023-05-11T05:25:37.215Z,46.37
2023-05-11T05:28:08.068Z,44.77
2023-05-11T05:30:39.069Z,46.03
2023-05-11T05:33:10.021Z,48.53
2023-05-11T05:35:46.763Z,48.37
2023-05-11T05:38:17.737Z,47.13
2023-05-11T05:40:48.565Z,43.23
2023-05-11T05:43:19.555Z,41.73
2023-05-11T05:45:50.618Z,44.07
2023-05-11T05:48:21.501Z,42.20
2023-05-11T05:50:54.966Z,40.37
2023-05-11T05:53:25.824Z,47.80
2023-05-11T05:55:56.800Z,44.43
2023-05-11T05:58:27.705Z,50.03
2023-05-11T06:00:58.537Z,47.70
2023-05-11T06:03:30.008Z,47.10
2023-05-11T06:06:04.860Z,49.47
2023-05-11T06:08:35.793Z,47.87
2023-05-11T06:11:06.681Z,45.90
2023-05-11T06:13:37.633Z,46.60
2023-05-11T06:16:08.871Z,46.73
2023-05-11T06:18:39.783Z,46.50
2023-05-11T06:21:13.231Z,45.27
2023-05-11T06:23:44.077Z,50.83
2023-05-11T06:26:15.068Z,45.90
2023-05-11T06:28:46.016Z,43.80
2023-05-11T06:31:16.904Z,49.03
2023-05-11T06:33:47.751Z,44.80
2023-05-11T06:36:21.274Z,45.73
2023-05-11T06:38:52.219Z,43.13
2023-05-11T06:41:23.084Z,40.10
2023-05-11T06:43:56.449Z,43.53
2023-05-11T06:46:27.379Z,41.50
2023-05-11T06:48:58.364Z,39.57
2023-05-11T06:51:32.232Z,39.17
2023-05-11T06:54:03.164Z,39.30
2023-05-11T06:56:35.025Z,38.17
2023-05-11T06:59:05.892Z,36.03
2023-05-11T07:01:36.824Z,39.13
2023-05-11T07:04:08.005Z,38.77
2023-05-11T07:06:41.588Z,40.03
2023-05-11T07:09:12.817Z,44.00
2023-05-11T07:11:43.857Z,38.90
2023-05-11T07:14:17.239Z,38.47
2023-05-11T07:16:48.199Z,38.27
2023-05-11T07:19:19.128Z,40.83
2023-05-11T07:21:52.548Z,37.13
2023-05-11T07:24:23.393Z,35.47
2023-05-11T07:27:03.101Z,36.80
2023-05-11T07:29:33.943Z,34.70
2023-05-11T07:32:05.053Z,32.43
2023-05-11T07:34:36.877Z,32.20
2023-05-11T07:37:12.146Z,32.70
2023-05-11T07:39:42.993Z,34.80
2023-05-11T07:42:13.930Z,37.23
2023-05-11T07:44:44.889Z,37.33
2023-05-11T07:47:17.727Z,34.13
2023-05-11T07:49:48.824Z,37.67
2023-05-11T07:52:22.335Z,32.40
2023-05-11T07:54:53.243Z,31.17
2023-05-11T07:57:24.232Z,32.73
2023-05-11T07:59:55.478Z,31.50
2023-05-11T08:02:26.429Z,32.30
2023-05-11T08:04:57.903Z,31.20
2023-05-11T08:07:31.530Z,28.60
2023-05-11T08:10:02.390Z,33.10
2023-05-11T08:12:33.601Z,27.13
2023-05-11T08:15:04.636Z,30.03
2023-05-11T08:17:35.821Z,31.33
2023-05-11T08:20:07.031Z,29.47
2023-05-11T08:22:40.592Z,30.90
2023-05-11T08:25:12.217Z,25.17
2023-05-11T08:27:43.054Z,31.27
2023-05-11T08:30:18.039Z,27.70
2023-05-11T08:32:58.061Z,25.97
2023-05-11T08:35:30.444Z,22.93
2023-05-11T08:38:04.030Z,24.70
2023-05-11T08:40:34.957Z,28.97
2023-05-11T08:43:08.477Z,23.50
2023-05-11T08:45:41.077Z,24.60
2023-05-11T08:48:12.279Z,28.13
2023-05-11T08:50:43.133Z,28.77
2023-05-11T08:53:18.229Z,25.93
2023-05-11T08:55:50.512Z,25.70
2023-05-11T08:58:22.538Z,26.53
2023-05-11T09:00:53.865Z,25.97
2023-05-11T09:03:25.217Z,25.13
2023-05-11T09:05:56.563Z,28.90
2023-05-11T09:08:34.352Z,26.67
2023-05-11T09:11:06.391Z,23.80
2023-05-11T09:13:37.648Z,25.33
2023-05-11T09:16:20.456Z,25.83
2023-05-11T09:19:03.564Z,21.30
2023-05-11T09:21:35.141Z,21.90
2023-05-11T09:24:09.682Z,20.67
2023-05-11T09:26:40.562Z,22.43
2023-05-11T09:29:11.834Z,23.83
2023-05-11T09:31:44.486Z,24.50
2023-05-11T09:34:18.084Z,22.37
2023-05-11T09:36:51.266Z,21.80
2023-05-11T09:39:37.818Z,24.27
2023-05-11T09:42:18.565Z,18.90
2023-05-11T09:44:50.497Z,18.90
2023-05-11T09:47:24.041Z,17.83
2023-05-11T09:49:55.390Z,19.00
2023-05-11T09:52:29.391Z,18.47
2023-05-11T09:55:13.493Z,19.57
2023-05-11T09:57:44.266Z,16.67
2023-05-11T10:00:18.865Z,17.33
2023-05-11T10:03:01.421Z,17.63
2023-05-11T10:05:35.285Z,19.20
2023-05-11T10:08:07.769Z,19.53
2023-05-11T10:10:41.270Z,16.63
2023-05-11T10:13:12.194Z,17.27
2023-05-11T10:15:43.577Z,17.43
2023-05-11T10:18:20.090Z,16.90
2023-05-11T10:20:51.552Z,17.03
2023-05-11T10:23:23.689Z,14.63
2023-05-11T10:25:58.058Z,17.40
2023-05-11T10:28:30.995Z,15.90
2023-05-11T10:31:02.896Z,14.90
2023-05-11T10:33:35.318Z,15.57
2023-05-11T10:36:06.885Z,15.37
2023-05-11T10:38:37.897Z,15.87
2023-05-11T10:41:44.987Z,14.17
2023-05-11T10:44:50.105Z,15.07
2023-05-11T10:47:40.182Z,12.37
2023-05-11T10:50:43.323Z,13.50
2023-05-11T10:53:32.107Z,12.00
2023-05-11T10:56:17.087Z,12.00
2023-05-11T10:59:04.509Z,12.80
2023-05-11T11:01:41.111Z,12.50
2023-05-11T11:04:13.908Z,13.07
2023-05-11T11:06:45.936Z,12.00
2023-05-11T11:09:18.276Z,11.80
2023-05-11T11:11:52.374Z,12.80
2023-05-11T11:14:26.406Z,12.50
2023-05-11T11:17:25.253Z,12.87
2023-05-11T11:19:57.601Z,13.33
2023-05-11T11:22:47.733Z,12.43
2023-05-11T11:25:39.668Z,11.20
2023-05-11T11:28:13.583Z,13.17
2023-05-11T11:30:44.800Z,13.10
2023-05-11T11:33:35.168Z,12.57
2023-05-11T11:36:06.325Z,13.27
2023-05-11T11:38:57.244Z,12.07
2023-05-11T11:41:38.386Z,11.90
2023-05-11T11:44:23.869Z,11.50
2023-05-11T11:47:13.689Z,11.60
2023-05-11T11:49:46.853Z,11.27
2023-05-11T11:52:36.195Z,10.47
2023-05-11T11:55:07.908Z,10.97
2023-05-11T11:57:51.477Z,11.70
2023-05-11T12:00:27.710Z,11.07
2023-05-11T12:02:59.293Z,12.87
2023-05-11T12:05:31.703Z,11.77
2023-05-11T12:08:09.038Z,11.90
2023-05-11T12:10:40.153Z,12.47
2023-05-11T12:13:15.023Z,13.23
2023-05-11T12:15:48.554Z,13.17
2023-05-11T12:18:23.932Z,12.70
2023-05-11T12:20:55.013Z,12.63
2023-05-11T12:23:25.927Z,12.43
2023-05-11T12:26:04.111Z,11.87
2023-05-11T12:28:35.844Z,13.03
2023-05-11T12:31:09.326Z,13.23
2023-05-11T12:33:48.290Z,13.00
2023-05-11T12:36:20.941Z,13.53
2023-05-11T12:38:52.330Z,13.23
2023-05-11T12:41:24.000Z,14.17
2023-05-11T12:43:56.528Z,14.57
2023-05-11T12:46:30.210Z,14.13
2023-05-11T12:49:01.494Z,14.43
2023-05-11T12:51:48.551Z,13.57
2023-05-11T12:54:30.940Z,12.00
2023-05-11T12:57:02.879Z,15.17
2023-05-11T12:59:38.214Z,13.53
2023-05-11T13:02:16.750Z,14.80
2023-05-11T13:04:51.543Z,12.10
2023-05-11T13:07:27.880Z,15.00
2023-05-11T13:09:59.920Z,14.73
2023-05-11T13:12:32.779Z,12.97
2023-05-11T13:15:14.601Z,13.30
2023-05-11T13:17:48.120Z,15.07
2023-05-11T13:20:20.586Z,16.97
2023-05-11T13:22:52.687Z,17.40
2023-05-11T13:25:23.877Z,15.43
2023-05-11T13:27:55.914Z,17.00
2023-05-11T13:30:27.084Z,16.10
2023-05-11T13:33:06.125Z,15.33
2023-05-11T13:35:41.934Z,12.87
2023-05-11T13:38:13.255Z,14.20
2023-05-11T13:40:44.350Z,11.40
2023-05-11T13:43:15.442Z,15.80
2023-05-11T13:45:46.404Z,13.53
2023-05-11T13:48:19.982Z,12.57
2023-05-11T13:50:50.875Z,11.37
2023-05-11T13:53:22.057Z,11.50
2023-05-11T13:55:52.990Z,11.40
2023-05-11T13:58:26.850Z,11.90
2023-05-11T14:03:38.114Z,11.60
2023-05-11T14:06:09.506Z,12.00
2023-05-11T14:08:40.411Z,11.60
2023-05-11T14:11:11.248Z,11.07
2023-05-11T14:13:42.347Z,10.53
2023-05-11T14:16:16.077Z,11.57
2023-05-11T14:18:50.859Z,11.87
2023-05-11T14:21:21.866Z,11.60
2023-05-11T14:24:10.074Z,11.10
2023-05-11T14:26:42.858Z,12.63
2023-05-11T14:29:15.916Z,9.80
2023-05-11T14:31:47.512Z,11.43
2023-05-11T14:34:21.270Z,11.87
2023-05-11T14:36:52.461Z,11.87
2023-05-11T14:39:23.374Z,10.27
2023-05-11T14:41:54.283Z,11.60
2023-05-11T14:44:25.340Z,12.37
2023-05-11T14:46:56.443Z,11.40
2023-05-11T14:49:30.019Z,11.00
2023-05-11T14:52:00.985Z,10.90
2023-05-11T14:54:31.829Z,12.77
2023-05-11T14:57:02.646Z,11.97
2023-05-11T14:59:33.645Z,13.03
2023-05-11T15:02:05.141Z,13.40
2023-05-11T15:04:39.210Z,14.00
2023-05-11T15:07:10.177Z,14.13
2023-05-11T15:09:41.616Z,11.47
2023-05-11T15:12:15.596Z,12.17
2023-05-11T15:14:46.549Z,10.13
2023-05-11T15:17:17.848Z,11.63
2023-05-11T15:19:51.404Z,9.37
2023-05-11T15:22:22.593Z,8.53
2023-05-11T15:24:53.866Z,7.87
2023-05-11T15:27:24.920Z,9.07
2023-05-11T15:29:56.024Z,10.00
2023-05-11T15:32:26.843Z,8.70
2023-05-11T15:35:03.333Z,8.93
2023-05-11T15:37:34.299Z,9.10
2023-05-11T15:40:05.102Z,9.30
2023-05-11T15:42:35.993Z,9.17
2023-05-11T15:45:08.173Z,10.17
2023-05-11T15:47:39.257Z,9.73
2023-05-11T15:50:15.931Z,10.60
2023-05-11T15:52:46.772Z,10.90
2023-05-11T15:55:17.663Z,9.67
2023-05-11T15:57:48.447Z,8.00
2023-05-11T16:00:20.281Z,8.13
2023-05-11T16:02:51.466Z,9.30
2023-05-11T16:05:25.214Z,8.97
2023-05-11T16:07:56.066Z,11.10
2023-05-11T16:10:27.098Z,11.13
2023-05-11T16:13:01.690Z,12.17
2023-05-11T16:15:33.143Z,11.83
2023-05-11T16:18:05.126Z,11.10
2023-05-11T16:20:38.980Z,11.33
2023-05-11T16:23:09.964Z,9.17
2023-05-11T16:25:42.163Z,9.63
2023-05-11T16:28:13.145Z,9.50
2023-05-11T16:30:44.197Z,7.90
2023-05-11T16:33:17.823Z,8.40
2023-05-11T16:35:51.388Z,8.17
2023-05-11T16:38:23.754Z,10.13
2023-05-11T16:40:55.577Z,8.00
2023-05-11T16:43:26.421Z,9.27
2023-05-11T16:45:58.958Z,7.90
2023-05-11T16:48:29.917Z,11.83
2023-05-11T16:51:03.601Z,9.03
2023-05-11T16:53:34.614Z,8.63
2023-05-11T16:56:05.485Z,7.57
2023-05-11T16:58:36.482Z,7.53
2023-05-11T17:01:07.639Z,7.60
2023-05-11T17:03:38.713Z,6.77
2023-05-11T17:06:14.776Z,5.37
2023-05-11T17:08:45.629Z,5.10
2023-05-11T17:11:16.469Z,4.40
2023-05-11T17:13:47.466Z,4.37
2023-05-11T17:16:18.430Z,3.53
2023-05-11T17:18:49.360Z,3.83
2023-05-11T17:21:22.791Z,4.20
2023-05-11T17:23:53.607Z,6.00
2023-05-11T17:26:27.471Z,4.70
2023-05-11T17:29:00.656Z,5.87
2023-05-11T17:31:31.658Z,5.80
2023-05-11T17:34:03.301Z,4.80
2023-05-11T17:36:37.069Z,3.80
2023-05-11T17:39:08.254Z,4.17
2023-05-11T17:41:39.679Z,4.87
2023-05-11T17:44:10.530Z,4.87
2023-05-11T17:46:41.493Z,3.27
2023-05-11T17:49:12.778Z,2.40
2023-05-11T17:51:46.518Z,2.93
2023-05-11T17:54:17.488Z,3.80
2023-05-11T17:56:48.704Z,6.30
2023-05-11T17:59:21.022Z,6.63
2023-05-11T18:01:52.395Z,11.87
2023-05-11T18:04:23.336Z,9.90
2023-05-11T18:06:57.426Z,9.23
2023-05-11T18:09:28.549Z,12.80
2023-05-11T18:11:59.658Z,9.60
2023-05-11T18:14:30.562Z,5.60
2023-05-11T18:17:01.378Z,6.83
2023-05-11T18:19:32.460Z,6.43
2023-05-11T18:22:06.935Z,6.50
2023-05-11T18:24:37.727Z,6.37
2023-05-11T18:27:08.831Z,6.83
2023-05-11T18:29:41.155Z,7.30
2023-05-11T18:32:14.445Z,8.43
2023-05-11T18:34:46.502Z,8.33
2023-05-11T18:37:19.971Z,9.03
2023-05-11T18:39:50.933Z,9.50
2023-05-11T18:42:21.994Z,8.07
2023-05-11T18:44:56.902Z,12.10
2023-05-11T18:47:31.028Z,9.30
2023-05-11T18:50:01.995Z,10.10
2023-05-11T18:52:35.781Z,10.13
2023-05-11T18:55:09.171Z,9.60
2023-05-11T18:57:40.737Z,10.97
2023-05-11T19:00:13.639Z,9.17
2023-05-11T19:02:44.652Z,8.77
2023-05-11T19:05:18.861Z,9.40
2023-05-11T19:07:52.432Z,9.07
2023-05-11T19:10:24.672Z,10.27
2023-05-11T19:12:55.600Z,11.40
2023-05-11T19:15:26.572Z,9.90
2023-05-11T19:17:57.441Z,10.10
2023-05-11T19:20:28.631Z,9.63
2023-05-11T19:23:02.180Z,10.30
2023-05-11T19:25:33.221Z,10.17
2023-05-11T19:28:04.276Z,15.13
2023-05-11T19:30:35.223Z,18.50
2023-05-11T19:33:06.338Z,15.97
2023-05-11T19:35:37.149Z,18.80
2023-05-11T19:38:10.643Z,14.07
2023-05-11T19:43:15.687Z,13.87
2023-05-11T19:45:47.194Z,14.10
2023-05-11T19:48:19.173Z,14.50
2023-05-11T19:50:50.260Z,12.73
2023-05-11T19:53:23.780Z,14.00
2023-05-11T19:56:03.698Z,14.20
2023-05-11T19:58:34.472Z,16.70
2023-05-11T20:01:05.682Z,13.77
2023-05-11T20:03:36.883Z,16.83
2023-05-11T20:06:07.732Z,15.57
2023-05-11T20:08:41.780Z,15.77
2023-05-11T20:11:12.825Z,19.80
2023-05-11T20:13:44.121Z,16.00
2023-05-11T20:16:15.615Z,16.07
2023-05-11T20:18:46.599Z,16.77
2023-05-11T20:21:17.499Z,17.10
2023-05-11T20:23:50.874Z,18.83
2023-05-11T20:26:21.705Z,17.50
2023-05-11T20:28:52.532Z,23.30
2023-05-11T20:31:24.094Z,20.13
2023-05-11T20:36:29.285Z,20.20
2023-05-11T20:39:03.104Z,18.47
2023-05-11T20:41:34.201Z,20.07
2023-05-11T20:44:05.572Z,23.27
2023-05-11T20:46:36.564Z,22.47
2023-05-11T20:49:10.460Z,20.10
2023-05-11T20:51:41.306Z,23.63
2023-05-11T20:54:15.324Z,20.70
2023-05-11T20:56:46.179Z,20.63
2023-05-11T21:01:50.918Z,22.53
2023-05-11T21:04:24.920Z,19.97
2023-05-11T21:06:58.196Z,18.80
2023-05-11T21:09:31.757Z,19.87
2023-05-11T21:12:02.551Z,20.00
2023-05-11T21:14:33.427Z,23.40
2023-05-11T21:17:04.480Z,19.60
2023-05-11T21:19:35.354Z,21.20
2023-05-11T21:22:06.518Z,17.27
2023-05-11T21:24:41.283Z,22.83
2023-05-11T21:27:12.147Z,21.60
2023-05-11T21:29:43.245Z,22.03
2023-05-11T21:32:14.244Z,22.77
2023-05-11T21:34:45.195Z,23.00
2023-05-11T21:37:20.237Z,22.67
2023-05-11T21:39:54.211Z,22.77
2023-05-11T21:42:25.415Z,22.30
2023-05-11T21:44:56.329Z,18.20
2023-05-11T21:47:27.540Z,21.10
2023-05-11T21:49:58.536Z,21.27
2023-05-11T21:52:29.802Z,23.67
2023-05-11T21:55:03.322Z,19.67
2023-05-11T21:57:34.246Z,21.87
2023-05-11T22:00:05.341Z,18.67
2023-05-11T22:02:36.356Z,19.10
2023-05-11T22:05:09.271Z,21.10
2023-05-11T22:07:47.053Z,21.77
2023-05-11T22:10:20.923Z,21.20
2023-05-11T22:12:52.473Z,22.97
2023-05-11T22:15:23.576Z,21.03
2023-05-11T22:17:54.455Z,23.90
2023-05-11T22:20:25.630Z,24.00
2023-05-11T22:22:56.475Z,20.13
2023-05-11T22:25:30.449Z,21.90
2023-05-11T22:28:01.301Z,19.73
2023-05-11T22:30:32.197Z,19.80
2023-05-11T22:33:03.269Z,21.20
2023-05-11T22:35:34.262Z,18.17
2023-05-11T22:38:05.178Z,18.87
2023-05-11T22:40:38.521Z,16.70
2023-05-11T22:43:09.394Z,15.23
2023-05-11T22:45:40.321Z,13.90
2023-05-11T22:48:11.545Z,13.20
2023-05-11T22:50:47.699Z,16.47
2023-05-11T22:53:19.268Z,17.93
2023-05-11T22:55:52.787Z,17.00
2023-05-11T22:58:24.848Z,15.57
2023-05-11T23:00:56.581Z,17.17
2023-05-11T23:03:29.686Z,22.17
2023-05-11T23:06:00.578Z,25.33
2023-05-11T23:08:31.513Z,26.30
2023-05-11T23:11:05.073Z,29.63
2023-05-11T23:13:36.332Z,30.07
2023-05-11T23:16:08.010Z,30.57
2023-05-11T23:18:39.412Z,32.67
2023-05-11T23:21:10.523Z,33.03
2023-05-11T23:23:42.643Z,36.00
2023-05-11T23:26:16.074Z,32.90
2023-05-11T23:28:47.363Z,34.07
2023-05-11T23:31:18.271Z,31.13
2023-05-11T23:33:49.204Z,34.33
2023-05-11T23:36:20.084Z,34.63
2023-05-11T23:38:52.711Z,35.13
2023-05-11T23:41:26.302Z,36.80
2023-05-11T23:43:57.920Z,38.23
2023-05-11T23:46:29.039Z,34.73
2023-05-11T23:48:59.969Z,37.13
2023-05-11T23:51:30.854Z,36.47
2023-05-11T23:54:02.215Z,39.57
2023-05-11T23:56:35.894Z,35.23
2023-05-11T23:59:06.786Z,34.90
